Midway, Canada
Current Conditions -  °F | °C
As of 10:00 PM on Tuesday 27 Jan 2015 (Local Time) from CYYF Reporting Station
Few Clouds Few Clouds  
Wind Chill: 31°   Ceiling: Unl
Heat Index: 37°   Visibility: 15mi
Dew Point: 34°   Wind: 8mph
Humidity: 87%   Direction: 180°S
Pressure: 30.14"   Gusts: NA
Location:  49.02°N, 118.78°W
Report Text: CYYF 280600Z 18007KT 15SM FEW020 03/01 A3014 RMK SC1 SLP220
Loading
Personal Weather Stations






























Interactive Weather Map New forecast layout! Learn more

10-Day Weather Forecast

Advertisements
Track Severe Weather on mobile